createdAt,value
2022-11-15T00:02:14.048Z,87.55
2022-11-15T00:05:00.361Z,84.85
2022-11-15T00:07:55.536Z,85.63
2022-11-15T00:10:42.301Z,83.25
2022-11-15T00:13:29.319Z,83.47
2022-11-15T00:16:15.980Z,87.47
2022-11-15T00:19:03.834Z,87.70
2022-11-15T00:21:49.884Z,93.90
2022-11-15T00:24:35.904Z,87.13
2022-11-15T00:27:21.976Z,88.40
2022-11-15T00:30:08.355Z,90.05
2022-11-15T00:32:54.447Z,92.70
2022-11-15T00:35:40.224Z,92.82
2022-11-15T00:38:26.072Z,103.22
2022-11-15T00:41:12.153Z,100.95
2022-11-15T00:43:58.390Z,93.43
2022-11-15T00:46:44.346Z,96.75
2022-11-15T00:49:30.315Z,94.50
2022-11-15T00:52:16.244Z,90.43
2022-11-15T00:55:02.151Z,80.22
2022-11-15T00:57:48.139Z,83.00
2022-11-15T01:00:34.199Z,82.35
2022-11-15T01:03:20.563Z,82.68
2022-11-15T01:06:07.347Z,87.10
2022-11-15T01:08:53.284Z,78.05
2022-11-15T01:11:39.243Z,76.22
2022-11-15T01:14:25.750Z,80.75
2022-11-15T01:17:12.287Z,77.93
2022-11-15T01:19:58.501Z,74.90
2022-11-15T01:22:44.716Z,76.28
2022-11-15T01:25:30.796Z,76.40
2022-11-15T01:28:17.023Z,74.95
2022-11-15T01:31:06.051Z,78.95
2022-11-15T01:33:52.146Z,79.10
2022-11-15T01:36:38.564Z,81.22
2022-11-15T01:39:24.425Z,85.18
2022-11-15T01:42:14.331Z,84.28
2022-11-15T01:45:00.352Z,84.88
2022-11-15T01:47:54.235Z,79.88
2022-11-15T01:50:40.162Z,81.40
2022-11-15T01:53:27.490Z,85.53
2022-11-15T01:56:21.583Z,86.50
2022-11-15T01:59:09.925Z,90.97
2022-11-15T02:01:56.257Z,84.00
2022-11-15T02:04:51.133Z,85.70
2022-11-15T02:07:38.175Z,91.95
2022-11-15T02:10:25.870Z,87.65
2022-11-15T02:13:12.105Z,93.70
2022-11-15T02:16:02.826Z,85.18
2022-11-15T02:18:56.605Z,91.78
2022-11-15T02:21:56.744Z,84.80
2022-11-15T02:24:42.605Z,79.60
2022-11-15T02:27:55.185Z,84.97
2022-11-15T02:30:54.525Z,82.28
2022-11-15T02:34:03.115Z,71.32
2022-11-15T02:36:48.920Z,72.78
2022-11-15T02:39:50.291Z,69.53
2022-11-15T02:43:08.304Z,67.05
2022-11-15T02:46:11.107Z,64.63
2022-11-15T02:48:57.202Z,62.22
2022-11-15T02:51:46.193Z,59.33
2022-11-15T02:54:34.934Z,60.38
2022-11-15T02:57:35.562Z,52.78
2022-11-15T03:00:22.756Z,55.83
2022-11-15T03:03:40.642Z,52.30
2022-11-15T03:06:32.724Z,48.00
2022-11-15T03:09:36.634Z,52.45
2022-11-15T03:12:28.770Z,50.25
2022-11-15T03:15:32.824Z,41.58
2022-11-15T03:18:48.771Z,44.33
2022-11-15T03:21:36.992Z,47.83
2022-11-15T03:24:26.423Z,39.72
2022-11-15T03:27:15.825Z,43.50
2022-11-15T03:30:05.637Z,41.08
2022-11-15T03:32:57.664Z,40.42
2022-11-15T03:35:46.029Z,39.13
2022-11-15T03:38:34.943Z,38.80
2022-11-15T03:41:30.905Z,38.38
2022-11-15T03:44:38.964Z,36.03
2022-11-15T03:47:30.700Z,39.47
2022-11-15T03:50:20.961Z,32.85
2022-11-15T03:53:07.275Z,32.90
2022-11-15T03:55:53.615Z,31.25
2022-11-15T03:58:39.903Z,34.38
2022-11-15T04:01:26.022Z,33.85
2022-11-15T04:04:12.088Z,33.25
2022-11-15T04:06:58.212Z,32.75
2022-11-15T04:10:02.616Z,34.97
2022-11-15T04:15:35.372Z,33.65
2022-11-15T04:18:22.110Z,31.90
2022-11-15T04:21:27.957Z,30.15
2022-11-15T04:24:14.143Z,30.95
2022-11-15T04:27:00.225Z,29.00
2022-11-15T04:29:46.293Z,27.85
2022-11-15T04:32:32.231Z,27.55
2022-11-15T04:35:18.410Z,24.50
2022-11-15T04:38:05.844Z,24.98
2022-11-15T04:40:52.186Z,22.83
2022-11-15T04:43:38.393Z,26.63
2022-11-15T04:46:25.424Z,25.83
2022-11-15T04:49:11.895Z,22.00
2022-11-15T04:51:57.953Z,22.85
2022-11-15T04:54:43.880Z,19.50
2022-11-15T04:57:30.013Z,22.17
2022-11-15T05:00:18.155Z,22.95
2022-11-15T05:03:23.115Z,20.50
2022-11-15T05:06:09.307Z,23.30
2022-11-15T05:08:55.589Z,21.90
2022-11-15T05:11:42.222Z,24.45
2022-11-15T05:14:28.652Z,22.27
2022-11-15T05:17:14.711Z,23.33
2022-11-15T05:20:00.783Z,20.42
2022-11-15T05:22:46.962Z,19.00
2022-11-15T05:25:33.153Z,21.83
2022-11-15T05:28:19.296Z,20.13
2022-11-15T05:31:17.013Z,20.23
2022-11-15T05:34:05.874Z,18.02
2022-11-15T05:36:51.990Z,19.60
2022-11-15T05:39:38.138Z,21.48
2022-11-15T05:42:24.343Z,21.60
2022-11-15T05:45:10.742Z,25.45
2022-11-15T05:47:59.305Z,21.45
2022-11-15T05:50:47.623Z,22.73
2022-11-15T05:53:34.716Z,31.00
2022-11-15T05:56:21.162Z,30.45
2022-11-15T05:59:08.984Z,28.35
2022-11-15T06:01:55.083Z,25.40
2022-11-15T06:04:41.112Z,24.60
2022-11-15T06:07:27.616Z,24.55
2022-11-15T06:10:13.961Z,24.60
2022-11-15T06:13:04.297Z,21.50
2022-11-15T06:15:50.724Z,36.85
2022-11-15T06:18:37.893Z,30.08
2022-11-15T06:21:24.275Z,22.20
2022-11-15T06:24:10.281Z,24.20
2022-11-15T06:26:56.310Z,22.08
2022-11-15T06:29:42.733Z,24.67
2022-11-15T06:32:30.617Z,22.67
2022-11-15T06:35:17.365Z,25.60
2022-11-15T06:38:06.175Z,20.88
2022-11-15T06:40:52.416Z,22.05
2022-11-15T06:43:38.835Z,22.92
2022-11-15T06:46:24.841Z,21.42
2022-11-15T06:49:11.138Z,20.67
2022-11-15T06:51:57.338Z,23.00
2022-11-15T06:54:43.192Z,21.80
2022-11-15T06:57:29.214Z,20.80
2022-11-15T07:00:15.965Z,26.15
2022-11-15T07:03:02.225Z,26.73
2022-11-15T07:05:54.394Z,31.27
2022-11-15T07:08:40.416Z,26.83
2022-11-15T07:11:26.586Z,30.55
2022-11-15T07:14:12.512Z,33.78
2022-11-15T07:16:58.581Z,30.63
2022-11-15T07:19:44.820Z,30.30
2022-11-15T07:22:30.782Z,29.67
2022-11-15T07:25:16.955Z,31.98
2022-11-15T07:28:04.085Z,32.88
2022-11-15T07:30:50.066Z,34.03
2022-11-15T07:33:36.152Z,30.88
2022-11-15T07:36:22.384Z,26.90
2022-11-15T07:39:08.536Z,27.40
2022-11-15T07:42:14.554Z,24.30
2022-11-15T07:45:00.476Z,26.90
2022-11-15T07:47:50.715Z,24.50
2022-11-15T07:50:36.595Z,22.40
2022-11-15T07:53:22.666Z,22.23
2022-11-15T07:56:09.446Z,19.77
2022-11-15T07:58:55.342Z,23.35
2022-11-15T08:01:41.403Z,18.63
2022-11-15T08:04:27.297Z,18.55
2022-11-15T08:07:13.323Z,21.15
2022-11-15T08:09:59.713Z,18.77
2022-11-15T08:12:46.025Z,18.98
2022-11-15T08:15:33.673Z,24.52
2022-11-15T08:18:19.762Z,19.30
2022-11-15T08:21:06.066Z,19.42
2022-11-15T08:23:52.803Z,16.55
2022-11-15T08:26:39.325Z,20.38
2022-11-15T08:29:25.385Z,17.00
2022-11-15T08:32:12.387Z,17.45
2022-11-15T08:34:58.536Z,14.70
2022-11-15T08:37:44.877Z,14.63
2022-11-15T08:40:31.126Z,12.38
2022-11-15T08:43:17.035Z,14.18
2022-11-15T08:46:03.265Z,12.73
2022-11-15T08:48:49.152Z,15.95
2022-11-15T08:51:35.284Z,11.95
2022-11-15T08:54:21.237Z,12.63
2022-11-15T08:57:07.655Z,12.43
2022-11-15T08:59:53.676Z,14.65
2022-11-15T09:02:40.774Z,12.88
2022-11-15T09:05:27.602Z,16.98
2022-11-15T09:08:45.547Z,13.82
2022-11-15T09:11:22.466Z,13.70
2022-11-15T09:14:08.765Z,17.20
2022-11-15T09:16:55.104Z,15.82
2022-11-15T09:19:41.306Z,15.88
2022-11-15T09:22:27.329Z,11.43
2022-11-15T09:25:13.498Z,11.32
2022-11-15T09:27:59.986Z,13.60
2022-11-15T09:30:46.085Z,12.18
2022-11-15T09:33:32.735Z,13.18
2022-11-15T09:36:19.008Z,13.07
2022-11-15T09:39:05.096Z,22.40
2022-11-15T09:42:17.205Z,22.58
2022-11-15T09:45:17.335Z,25.85
2022-11-15T09:48:24.743Z,26.40
2022-11-15T09:51:33.366Z,24.43
2022-11-15T09:54:37.923Z,26.50
2022-11-15T09:57:20.125Z,22.10
2022-11-15T10:00:12.415Z,25.10
2022-11-15T10:02:57.613Z,22.50
2022-11-15T10:05:26.889Z,26.48
2022-11-15T10:07:54.287Z,25.48
2022-11-15T10:10:31.642Z,28.65
2022-11-15T10:13:00.313Z,32.60
2022-11-15T10:15:27.796Z,34.63
2022-11-15T10:18:19.368Z,32.85
2022-11-15T10:20:55.388Z,33.25
2022-11-15T10:23:24.313Z,34.33
2022-11-15T10:26:01.162Z,31.90
2022-11-15T10:28:33.221Z,26.77
2022-11-15T10:31:02.667Z,31.20
2022-11-15T10:33:36.846Z,27.60
2022-11-15T10:36:14.505Z,29.98
2022-11-15T10:38:51.093Z,30.10
2022-11-15T10:41:32.724Z,30.13
2022-11-15T10:44:20.452Z,24.98
2022-11-15T10:47:05.283Z,22.90
2022-11-15T10:49:34.745Z,24.50
2022-11-15T10:52:17.816Z,20.95
2022-11-15T10:55:17.627Z,19.88
2022-11-15T10:57:52.256Z,21.80
2022-11-15T11:00:19.904Z,20.20
2022-11-15T11:03:28.026Z,19.80
2022-11-15T11:06:31.159Z,17.10
2022-11-15T11:09:04.814Z,19.33
2022-11-15T11:11:49.904Z,18.92
2022-11-15T11:14:24.391Z,17.38
2022-11-15T11:17:35.527Z,19.83
2022-11-15T11:20:32.492Z,16.27
2022-11-15T11:23:25.624Z,17.98
2022-11-15T11:26:07.447Z,20.08
2022-11-15T11:28:55.835Z,20.50
2022-11-15T11:31:44.395Z,18.88
2022-11-15T11:34:14.923Z,30.80
2022-11-15T11:36:56.726Z,26.80
2022-11-15T11:39:29.987Z,31.02
2022-11-15T11:42:09.636Z,33.67
2022-11-15T11:44:58.292Z,30.75
2022-11-15T11:47:34.836Z,29.98
2022-11-15T11:50:18.634Z,32.08
2022-11-15T11:53:05.498Z,35.13
2022-11-15T11:55:41.533Z,30.42
2022-11-15T11:58:23.110Z,27.27
2022-11-15T12:01:13.416Z,24.13
2022-11-15T12:03:41.062Z,21.38
2022-11-15T12:06:32.453Z,25.17
2022-11-15T12:09:02.835Z,25.73
2022-11-15T12:11:56.051Z,23.55
2022-11-15T12:18:36.797Z,27.80
2022-11-15T12:21:43.428Z,27.80
2022-11-15T12:24:19.874Z,27.23
2022-11-15T12:27:01.456Z,27.60
2022-11-15T12:29:38.958Z,28.02
2022-11-15T12:32:38.713Z,25.88
2022-11-15T12:35:29.265Z,25.67
2022-11-15T12:37:57.868Z,23.10
2022-11-15T12:40:26.877Z,25.08
2022-11-15T12:43:16.267Z,26.30
2022-11-15T12:45:45.985Z,22.23
2022-11-15T12:48:19.235Z,23.33
2022-11-15T12:50:54.216Z,27.35
2022-11-15T12:53:24.676Z,28.98
2022-11-15T12:56:04.175Z,22.48
2022-11-15T12:59:00.788Z,23.63
2022-11-15T13:01:34.462Z,25.73
2022-11-15T13:04:19.962Z,23.27
2022-11-15T13:06:50.153Z,21.70
2022-11-15T13:09:38.613Z,16.88
2022-11-15T13:12:28.780Z,18.45
2022-11-15T13:14:59.437Z,17.75
2022-11-15T13:17:34.865Z,17.63
2022-11-15T13:20:08.106Z,18.85
2022-11-15T13:22:52.222Z,18.98
2022-11-15T13:27:51.777Z,18.08
2022-11-15T13:30:29.018Z,20.05
2022-11-15T13:32:58.626Z,21.13
2022-11-15T13:35:29.071Z,18.95
2022-11-15T13:37:58.897Z,18.58
2022-11-15T13:40:31.542Z,19.15
2022-11-15T13:42:59.438Z,17.95
2022-11-15T13:45:27.878Z,23.70
2022-11-15T13:47:57.419Z,23.55
2022-11-15T13:50:38.026Z,21.30
2022-11-15T13:53:06.805Z,22.08
2022-11-15T13:55:34.548Z,22.42
2022-11-15T13:58:07.387Z,26.58
2022-11-15T14:00:35.431Z,24.03
2022-11-15T14:03:26.759Z,23.83
2022-11-15T14:06:13.430Z,21.08
2022-11-15T14:09:02.036Z,23.83
2022-11-15T14:11:29.733Z,25.33
2022-11-15T14:14:13.597Z,24.30
2022-11-15T14:16:42.708Z,26.55
2022-11-15T14:19:34.934Z,23.75
2022-11-15T14:22:16.079Z,26.42
2022-11-15T14:24:47.061Z,25.25
2022-11-15T14:27:22.297Z,24.23
2022-11-15T14:29:50.297Z,25.98
2022-11-15T14:32:24.488Z,25.73
2022-11-15T14:34:56.348Z,24.17
2022-11-15T14:37:35.117Z,25.38
2022-11-15T14:40:05.256Z,23.08
2022-11-15T14:42:33.337Z,23.23
2022-11-15T14:45:00.771Z,25.48
2022-11-15T14:47:28.367Z,25.33
2022-11-15T14:49:55.803Z,23.45
2022-11-15T14:52:32.778Z,26.65
2022-11-15T14:55:03.350Z,21.60
2022-11-15T14:57:31.358Z,25.35
2022-11-15T14:59:58.798Z,25.85
2022-11-15T15:02:40.592Z,28.70
2022-11-15T15:05:21.344Z,25.23
2022-11-15T15:07:49.533Z,27.98
2022-11-15T15:10:39.665Z,23.55
2022-11-15T15:13:07.268Z,24.33
2022-11-15T15:15:37.417Z,23.38
2022-11-15T15:18:06.016Z,22.23
2022-11-15T15:20:33.949Z,21.85
2022-11-15T15:23:01.728Z,27.08
2022-11-15T15:25:33.090Z,21.60
2022-11-15T15:28:01.510Z,21.25
2022-11-15T15:30:31.295Z,24.15
2022-11-15T15:32:58.875Z,19.60
2022-11-15T15:35:32.068Z,22.63
2022-11-15T15:37:59.947Z,23.25
2022-11-15T15:40:30.906Z,21.10
2022-11-15T15:42:58.543Z,20.83
2022-11-15T15:45:28.627Z,20.88
2022-11-15T15:47:56.932Z,25.83
2022-11-15T15:50:30.043Z,22.02
2022-11-15T15:53:00.609Z,22.00
2022-11-15T15:55:28.879Z,21.75
2022-11-15T15:57:56.595Z,25.40
2022-11-15T16:00:25.951Z,17.80
2022-11-15T16:02:54.786Z,22.85
2022-11-15T16:05:23.225Z,21.05
2022-11-15T16:07:50.826Z,22.33
2022-11-15T16:10:27.317Z,20.33
2022-11-15T16:12:56.026Z,23.13
2022-11-15T16:15:25.503Z,21.40
2022-11-15T16:17:55.527Z,21.95
2022-11-15T16:20:45.479Z,19.55
2022-11-15T16:23:19.107Z,19.92
2022-11-15T16:25:52.202Z,21.63
2022-11-15T16:28:23.196Z,24.10
2022-11-15T16:31:00.366Z,26.17
2022-11-15T16:33:27.813Z,24.20
2022-11-15T16:35:55.307Z,24.40
2022-11-15T16:38:22.928Z,22.83
2022-11-15T16:40:50.377Z,24.05
2022-11-15T16:43:18.469Z,24.75
2022-11-15T16:45:46.238Z,24.90
2022-11-15T16:48:28.465Z,21.98
2022-11-15T16:50:57.679Z,22.13
2022-11-15T16:53:26.597Z,23.90
2022-11-15T16:55:55.497Z,23.17
2022-11-15T16:58:23.445Z,23.67
2022-11-15T17:00:55.345Z,27.40
2022-11-15T17:03:24.178Z,28.33
2022-11-15T17:05:52.418Z,24.95
2022-11-15T17:08:22.073Z,23.13
2022-11-15T17:10:49.803Z,23.67
2022-11-15T17:13:17.624Z,28.85
2022-11-15T17:15:45.059Z,29.83
2022-11-15T17:18:14.198Z,30.33
2022-11-15T17:20:42.907Z,33.90
2022-11-15T17:23:15.056Z,30.77
2022-11-15T17:25:42.727Z,32.53
2022-11-15T17:28:10.977Z,32.78
2022-11-15T17:30:42.269Z,34.97
2022-11-15T17:33:09.739Z,31.90
2022-11-15T17:35:37.158Z,37.85
2022-11-15T17:38:04.700Z,35.55
2022-11-15T17:40:32.168Z,34.25
2022-11-15T17:42:59.706Z,38.97
2022-11-15T17:45:27.057Z,32.83
2022-11-15T17:47:54.630Z,35.97
2022-11-15T17:50:22.187Z,35.28
2022-11-15T17:52:49.548Z,30.25
2022-11-15T17:55:17.127Z,33.22
2022-11-15T17:57:44.718Z,33.30
2022-11-15T18:00:12.803Z,31.02
2022-11-15T18:02:40.283Z,32.00
2022-11-15T18:05:08.084Z,35.60
2022-11-15T18:07:35.539Z,33.47
2022-11-15T18:10:03.147Z,35.13
2022-11-15T18:12:30.676Z,38.10
2022-11-15T18:14:58.277Z,32.42
2022-11-15T18:17:26.048Z,33.35
2022-11-15T18:19:53.541Z,35.00
2022-11-15T18:22:21.002Z,36.63
2022-11-15T18:24:48.519Z,38.33
2022-11-15T18:27:16.033Z,36.65
2022-11-15T18:29:44.989Z,42.65
2022-11-15T18:32:15.178Z,38.95
2022-11-15T18:34:42.744Z,34.25
2022-11-15T18:37:10.261Z,37.17
2022-11-15T18:39:37.987Z,31.83
2022-11-15T18:42:05.653Z,34.60
2022-11-15T18:44:33.188Z,35.92
2022-11-15T18:47:00.718Z,30.48
2022-11-15T18:49:28.509Z,33.28
2022-11-15T18:51:57.161Z,29.40
2022-11-15T18:54:30.660Z,30.85
2022-11-15T18:56:59.241Z,33.95
2022-11-15T18:59:27.954Z,30.60
2022-11-15T19:01:56.145Z,26.85
2022-11-15T19:04:23.643Z,29.10
2022-11-15T19:06:51.494Z,29.27
2022-11-15T19:09:19.598Z,29.90
2022-11-15T19:11:48.497Z,28.02
2022-11-15T19:14:17.620Z,28.60
2022-11-15T19:16:55.257Z,28.65
2022-11-15T19:19:25.808Z,31.60
2022-11-15T19:21:53.829Z,30.98
2022-11-15T19:24:21.354Z,31.30
2022-11-15T19:26:49.005Z,29.83
2022-11-15T19:29:17.427Z,30.80
2022-11-15T19:31:45.495Z,28.65
2022-11-15T19:34:13.094Z,30.02
2022-11-15T19:36:42.649Z,28.42
2022-11-15T19:39:13.359Z,29.02
2022-11-15T19:41:43.061Z,30.98
2022-11-15T19:44:12.216Z,27.23
2022-11-15T19:46:40.504Z,26.80
2022-11-15T19:49:10.770Z,27.20
2022-11-15T19:51:41.718Z,28.92
2022-11-15T19:54:10.579Z,27.13
2022-11-15T19:56:40.189Z,27.85
2022-11-15T19:59:08.227Z,24.75
2022-11-15T20:01:38.736Z,25.88
2022-11-15T20:04:08.196Z,27.63
2022-11-15T20:06:39.487Z,23.25
2022-11-15T20:09:07.307Z,27.35
2022-11-15T20:11:35.087Z,28.80
2022-11-15T20:14:02.634Z,28.35
2022-11-15T20:16:30.429Z,29.58
2022-11-15T20:18:58.080Z,27.15
2022-11-15T20:21:25.636Z,27.50
2022-11-15T20:23:53.287Z,27.67
2022-11-15T20:26:21.092Z,25.27
2022-11-15T20:28:49.240Z,25.25
2022-11-15T20:31:17.928Z,23.52
2022-11-15T20:33:46.163Z,23.88
2022-11-15T20:36:15.739Z,26.13
2022-11-15T20:38:44.487Z,25.95
2022-11-15T20:41:13.038Z,22.55
2022-11-15T20:43:43.753Z,25.35
2022-11-15T20:46:12.690Z,23.77
2022-11-15T20:48:40.663Z,22.70
2022-11-15T20:51:14.426Z,24.25
2022-11-15T20:53:43.927Z,26.65
2022-11-15T20:56:14.226Z,23.38
2022-11-15T20:58:42.497Z,26.90
2022-11-15T21:01:13.871Z,25.10
2022-11-15T21:03:41.667Z,23.35
2022-11-15T21:06:10.296Z,22.60
2022-11-15T21:08:56.503Z,21.88
2022-11-15T21:11:43.757Z,21.40
2022-11-15T21:14:11.396Z,21.42
2022-11-15T21:16:39.198Z,21.83
2022-11-15T21:19:07.048Z,18.00
2022-11-15T21:21:36.418Z,23.42
2022-11-15T21:24:06.358Z,20.70
2022-11-15T21:26:34.585Z,22.10
2022-11-15T21:29:02.533Z,23.67
2022-11-15T21:31:30.535Z,21.95
2022-11-15T21:33:58.119Z,23.05
2022-11-15T21:36:25.637Z,20.30
2022-11-15T21:38:53.795Z,20.00
2022-11-15T21:41:21.449Z,17.75
2022-11-15T21:43:48.833Z,19.95
2022-11-15T21:46:16.433Z,19.98
2022-11-15T21:48:43.876Z,16.88
2022-11-15T21:51:12.527Z,18.85
2022-11-15T21:53:39.997Z,17.15
2022-11-15T21:56:08.027Z,18.17
2022-11-15T21:58:36.217Z,16.83
2022-11-15T22:01:23.189Z,17.90
2022-11-15T22:03:51.267Z,16.77
2022-11-15T22:06:18.711Z,15.13
2022-11-15T22:08:46.984Z,16.33
2022-11-15T22:11:15.101Z,15.52
2022-11-15T22:13:43.143Z,15.32
2022-11-15T22:16:11.227Z,16.20
2022-11-15T22:18:39.500Z,15.35
2022-11-15T22:21:12.973Z,15.82
2022-11-15T22:23:41.208Z,13.45
2022-11-15T22:26:12.344Z,15.68
2022-11-15T22:28:40.645Z,15.73
2022-11-15T22:31:09.244Z,15.50
2022-11-15T22:33:37.358Z,15.70
2022-11-15T22:36:06.163Z,17.08
2022-11-15T22:38:34.026Z,16.55
2022-11-15T22:41:02.630Z,17.73
2022-11-15T22:43:30.518Z,16.27
2022-11-15T22:46:00.282Z,15.52
2022-11-15T22:48:36.706Z,19.33
2022-11-15T22:51:05.987Z,15.23
2022-11-15T22:53:34.070Z,16.10
2022-11-15T22:56:04.810Z,16.60
2022-11-15T22:58:33.790Z,14.88
2022-11-15T23:01:03.750Z,16.02
2022-11-15T23:03:33.363Z,16.05
2022-11-15T23:06:03.449Z,15.55
2022-11-15T23:08:31.096Z,17.50
2022-11-15T23:11:21.663Z,18.63
2022-11-15T23:13:52.075Z,16.85
2022-11-15T23:16:23.951Z,15.02
2022-11-15T23:18:54.789Z,14.27
2022-11-15T23:21:45.788Z,15.63
2022-11-15T23:24:14.653Z,17.75
2022-11-15T23:26:43.256Z,14.73
2022-11-15T23:29:13.347Z,14.20
2022-11-15T23:32:02.530Z,15.32
2022-11-15T23:34:36.780Z,14.65
2022-11-15T23:37:05.157Z,18.05
2022-11-15T23:39:32.988Z,14.63
2022-11-15T23:42:04.571Z,14.07
2022-11-15T23:44:36.188Z,15.80
2022-11-15T23:47:03.897Z,14.73
2022-11-15T23:49:31.434Z,16.02
2022-11-15T23:51:59.086Z,17.02
2022-11-15T23:54:26.654Z,16.38
2022-11-15T23:56:54.196Z,15.73
2022-11-15T23:59:21.837Z,16.42
